Grand Marais, Minnesota
Current Conditions -  °F | °C
As of 12:14 PM on Friday 28 Nov 2014 (Local Time) from KCKC Reporting Station
Overcast Overcast  
Wind Chill:   Ceiling: 2700
Heat Index: 16°   Visibility: 10mi
Dew Point:   Wind: 6mph
Humidity: 58%   Direction: 150°SSE
Pressure: 29.93"   Gusts: NA
Location:  47.75°N, 90.33°W
Report Text: KCKC 281814Z AUTO 15005KT 10SM SCT018 BKN027 OVC036 M09/M16 A2993 RMK AO2
Loading
Personal Weather Stations






























Interactive Weather Map New forecast layout! Learn more

10-Day Weather Forecast

Advertisements
Track Severe Weather on mobile